KDLS

Columbia Gorge Regional / The Dalles Municipal Airport

The Dalles, Oregon, USA
KDLS 201741Z 2018/2118 30006KT P6SM SCT200 SCT250 FM202000 32010G18KT P6SM FEW150 BKN200 FM210500 30007KT P6SM BKN100 OVC150 FM211200 27007KT P6SM SCT050 BKN070 FM211500 26018G25KT P6SM SCT050
Issued Valid From Valid To
Apr-20 @ 17:41 UTC
(58 minutes ago)
Apr-20 @ 18:00 UTC
(39 minutes ago)
Apr-21 @ 18:00 UTC
(in 23 hours)
Apr-20 @ 18:00 to Apr-20 @ 20:00
KDLS 201741Z 2018/2118 30006KT P6SM SCT200 SCT250
Wind Visibility Clouds
300° at 6 knots Greater than 6 miles
  • Scattered at 20,000' AGL
  • Scattered at 25,000' AGL
From Apr-20 @ 20:00 to Apr-21 @ 05:00
FM202000 32010G18KT P6SM FEW150 BKN200
Wind Visibility Clouds
320° at 10 knots
 Gusting to 18 knots
Greater than 6 miles
  • Few at 15,000' AGL
  • Broken at 20,000' AGL
From Apr-21 @ 05:00 to Apr-21 @ 12:00
FM210500 30007KT P6SM BKN100 OVC150
Wind Visibility Clouds
300° at 7 knots Greater than 6 miles
  • Broken at 10,000' AGL
  • Overcast at 15,000' AGL
From Apr-21 @ 12:00 to Apr-21 @ 15:00
FM211200 27007KT P6SM SCT050 BKN070
Wind Visibility Clouds
270° at 7 knots Greater than 6 miles
  • Scattered at 5,000' AGL
  • Broken at 7,000' AGL
From Apr-21 @ 15:00 to Apr-21 @ 18:00
FM211500 26018G25KT P6SM SCT050
Wind Visibility Clouds
260° at 18 knots
 Gusting to 25 knots
Greater than 6 miles
  • Scattered at 5,000' AGL
KDLS 201741Z 2018/2118 30006KT P6SM SCT200 SCT250 FM202000 32010G18KT P6SM FEW150 BKN200 FM210500 30007KT P6SM BKN100 OVC150 FM211200 27007KT P6SM SCT050 BKN070 FM211500 26018G25KT P6SM SCT050
Issued Apr-20 @ 17:41 UTC
(58 minutes ago)
Valid From Apr-20 @ 18:00 UTC
(39 minutes ago)
Valid To Apr-21 @ 18:00 UTC
(in 23 hours)
Apr-20 @ 18:00 - Apr-20 @ 20:00
Wind Visibility
300° at 6 knots Greater than 6 miles
Clouds
  • Scattered at 20,000' AGL
  • Scattered at 25,000' AGL
From Apr-20 @ 20:00 - Apr-21 @ 05:00
Wind Visibility
320° at 10 knots
 Gusting to 18 knots
Greater than 6 miles
Clouds
  • Few at 15,000' AGL
  • Broken at 20,000' AGL
From Apr-21 @ 05:00 - Apr-21 @ 12:00
Wind Visibility
300° at 7 knots Greater than 6 miles
Clouds
  • Broken at 10,000' AGL
  • Overcast at 15,000' AGL
From Apr-21 @ 12:00 - Apr-21 @ 15:00
Wind Visibility
270° at 7 knots Greater than 6 miles
Clouds
  • Scattered at 5,000' AGL
  • Broken at 7,000' AGL
From Apr-21 @ 15:00 - Apr-21 @ 18:00
Wind Visibility
260° at 18 knots
 Gusting to 25 knots
Greater than 6 miles
Clouds
  • Scattered at 5,000' AGL